Time;durP1;ratioP1;P1;durP2;ratioP2;P2;SDS_P1;SDS_P2;PMS_P1;PMS_P2;Temp;Humidity;BMP_temperature;BMP_pressure;BME280_temperature;BME280_humidity;BME280_pressure;Samples;Min_cycle;Max_cycle;Signal;HPM_P1;HPM_P2
2022/06/05 00:04:29;;;;;;;;;;;;;;;-145.66;100.00;59599.19;10500192;28;20011;-67
2022/06/05 00:10:07;;;;;;;;;;;;;;;-145.66;100.00;59599.19;10500425;28;19921;-67
2022/06/05 00:15:10;;;;;;;;;;;;;;;-145.66;100.00;59599.19;10360735;28;19935;-67
2022/06/05 00:20:12;;;;;;;;;;;;;;;-145.66;100.00;59599.19;10458014;28;19927;-67
2022/06/05 00:25:14;;;;;;;;;;;;;;;-145.66;100.00;59599.19;10463997;28;20375;-67
2022/06/05 00:30:21;;;;;;;;;;;;;;;-145.66;100.00;59599.19;10480579;28;19982;-67
2022/06/05 00:35:30;;;;;;;;;;;;;;;-145.66;100.00;59599.19;10481559;28;19942;-67
2022/06/05 00:40:40;;;;;;;;;;;;;;;-145.66;100.00;59599.19;10482446;28;19927;-66
2022/06/05 00:45:42;;;;;;;;;;;;;;;-145.66;100.00;59599.19;10481411;28;19920;-66
2022/06/05 00:50:47;;;;;;;;;;;;;;;-145.66;100.00;59599.19;10481151;28;19927;-67
2022/06/05 00:55:51;;;;;;;;;;;;;;;-145.66;100.00;59599.19;10498407;28;19999;-66
2022/06/05 01:00:53;;;;;;;;;;;;;;;-145.66;100.00;59599.19;10498164;28;19920;-67
2022/06/05 01:05:56;;;;;;;;;;;;;;;-145.66;100.00;59599.19;10480801;28;20007;-66
2022/06/05 01:11:10;;;;;;;;;;;;;;;-145.66;100.00;59599.19;10497595;28;19927;-67
2022/06/05 01:16:19;;;;;;;;;;;;;;;-145.66;100.00;59599.19;10498593;28;19927;-67
2022/06/05 01:21:27;;;;;;;;;;;;;;;-145.66;100.00;59599.19;10480525;28;19963;-66
2022/06/05 01:26:30;;;;;;;;;;;;;;;-145.66;100.00;59599.19;10498346;28;19935;-66
2022/06/05 01:31:33;;;;;;;;;;;;;;;-145.66;100.00;59599.19;10498011;28;19927;-66
2022/06/05 01:37:01;;;;;;;;;;;;;;;-145.66;100.00;59599.19;10479597;28;20336;-66
2022/06/05 01:42:05;;;;;;;;;;;;;;;-145.66;100.00;59599.19;10498020;28;19920;-67
2022/06/05 01:47:33;;;;;;;;;;;;;;;-145.66;100.00;59599.19;10505945;28;20294;-66
2022/06/05 01:52:38;;;;;;;;;;;;;;;-145.66;100.00;59599.19;10487695;28;19921;-66
2022/06/05 01:57:40;;;;;;;;;;;;;;;-145.66;100.00;59599.19;10487218;28;20378;-67
2022/06/05 02:02:44;;;;;;;;;;;;;;;-145.66;100.00;59599.19;10487558;28;19921;-66
2022/06/05 02:07:48;;;;;;;;;;;;;;;-145.66;100.00;59599.19;10504589;28;19928;-66
2022/06/05 02:12:51;;;;;;;;;;;;;;;-145.66;100.00;59599.19;10486960;28;19927;-66
2022/06/05 02:17:55;;;;;;;;;;;;;;;-145.66;100.00;59599.19;10486764;28;19920;-66
2022/06/05 02:22:57;;;;;;;;;;;;;;;-145.66;100.00;59599.19;10486824;28;20022;-66
2022/06/05 02:28:00;;;;;;;;;;;;;;;-145.66;100.00;59599.19;10485921;28;19920;-66
2022/06/05 02:33:09;;;;;;;;;;;;;;;-145.66;100.00;59599.19;10485579;28;19920;-66
2022/06/05 02:38:30;;;;;;;;;;;;;;;-145.66;100.00;59599.19;10486173;28;19927;-67
2022/06/05 02:43:41;;;;;;;;;;;;;;;-145.66;100.00;59599.19;10485440;28;19920;-69
2022/06/05 02:48:53;;;;;;;;;;;;;;;-145.66;100.00;59599.19;10503455;28;19920;-67
2022/06/05 02:53:56;;;;;;;;;;;;;;;-145.66;100.00;59599.19;10484592;28;19920;-67
2022/06/05 02:58:59;;;;;;;;;;;;;;;-145.66;100.00;59599.19;10502859;28;19920;-67
2022/06/05 03:04:02;;;;;;;;;;;;;;;-145.66;100.00;59599.19;10502454;28;19928;-66
2022/06/05 03:09:05;;;;;;;;;;;;;;;-145.66;100.00;59599.19;10502677;28;19920;-66
2022/06/05 03:14:13;;;;;;;;;;;;;;;-145.66;100.00;59599.19;10458481;22;19921;-62
2022/06/05 03:19:16;;;;;;;;;;;;;;;-145.66;100.00;59599.19;10419092;28;19927;-62
2022/06/05 03:24:18;;;;;;;;;;;;;;;-145.66;100.00;59599.19;10419586;28;19931;-62
2022/06/05 03:29:21;;;;;;;;;;;;;;;-145.66;100.00;59599.19;10418820;28;19935;-62
2022/06/05 03:34:23;;;;;;;;;;;;;;;-145.66;100.00;59599.19;10418093;28;19921;-63
2022/06/05 03:39:25;;;;;;;;;;;;;;;-145.66;100.00;59599.19;10419020;28;19928;-62
2022/06/05 03:44:27;;;;;;;;;;;;;;;-145.66;100.00;59599.19;10417888;28;19940;-62
2022/06/05 03:49:30;;;;;;;;;;;;;;;-145.66;100.00;59599.19;10417982;28;20283;-62
2022/06/05 03:54:33;;;;;;;;;;;;;;;-145.66;100.00;59599.19;10418116;28;19921;-62
2022/06/05 03:59:36;;;;;;;;;;;;;;;-145.66;100.00;59599.19;10399995;28;20019;-62
2022/06/05 04:04:38;;;;;;;;;;;;;;;-145.66;100.00;59599.19;10417142;28;20394;-62
2022/06/05 04:09:40;;;;;;;;;;;;;;;-145.66;100.00;59599.19;10417192;28;19928;-62
2022/06/05 04:14:42;;;;;;;;;;;;;;;-145.66;100.00;59599.19;10416362;28;20359;-62
2022/06/05 04:19:45;;;;;;;;;;;;;;;-145.66;100.00;59599.19;10416767;28;20410;-62
2022/06/05 04:24:47;;;;;;;;;;;;;;;-145.66;100.00;59599.19;10416333;28;19921;-62
2022/06/05 04:29:49;;;;;;;;;;;;;;;-145.66;100.00;59599.19;10416677;28;19920;-62
2022/06/05 04:34:51;;;;;;;;;;;;;;;-145.66;100.00;59599.19;10416950;28;19932;-62
2022/06/05 04:39:58;;;;;;;;;;;;;;;-145.66;100.00;59599.19;10416817;28;19921;-62
2022/06/05 04:45:01;;;;;;;;;;;;;;;-145.66;100.00;59599.19;10416455;28;19975;-62
2022/06/05 04:50:03;;;;;;;;;;;;;;;-145.66;100.00;59599.19;10415647;28;20368;-62
2022/06/05 04:55:07;;;;;;;;;;;;;;;-145.66;100.00;59599.19;10416388;28;20009;-61
2022/06/05 05:00:10;;;;;;;;;;;;;;;-145.66;100.00;59599.19;10415948;28;19927;-62
2022/06/05 05:05:12;;;;;;;;;;;;;;;-145.66;100.00;59599.19;10416071;28;19921;-61
2022/06/05 05:10:14;;;;;;;;;;;;;;;-145.66;100.00;59599.19;10415834;28;19939;-62
2022/06/05 05:15:16;;;;;;;;;;;;;;;-145.66;100.00;59599.19;10416250;28;20287;-62
2022/06/05 05:20:20;;;;;;;;;;;;;;;-145.66;100.00;59599.19;10424369;28;19921;-62
2022/06/05 05:25:22;;;;;;;;;;;;;;;-145.66;100.00;59599.19;10423477;28;19921;-62
2022/06/05 05:30:24;;;;;;;;;;;;;;;-145.66;100.00;59599.19;10423360;28;19922;-62
2022/06/05 05:35:27;;;;;;;;;;;;;;;-145.66;100.00;59599.19;10423190;28;20380;-63
2022/06/05 05:45:50;;;;;;;;;;;;;;;-145.66;100.00;59599.19;10423087;28;19928;-62
2022/06/05 05:50:55;;;;;;;;;;;;;;;-145.66;100.00;59599.19;10421041;28;20431;-62
2022/06/05 05:56:04;;;;;;;;;;;;;;;-145.66;100.00;59599.19;10422367;28;19929;-62
2022/06/05 06:01:07;;;;;;;;;;;;;;;-145.66;100.00;59599.19;10422206;28;20361;-62
2022/06/05 06:06:09;;;;;;;;;;;;;;;-145.66;100.00;59599.19;10422259;28;19928;-62
2022/06/05 06:11:11;;;;;;;;;;;;;;;-145.66;100.00;59599.19;10403576;28;19921;-62
2022/06/05 06:16:14;;;;;;;;;;;;;;;-145.66;100.00;59599.19;10420354;28;19921;-62
2022/06/05 06:21:16;;;;;;;;;;;;;;;-145.66;100.00;59599.19;10420666;28;20020;-63
2022/06/05 06:26:18;;;;;;;;;;;;;;;-145.66;100.00;59599.19;10420098;28;19924;-62
2022/06/05 06:31:21;;;;;;;;;;;;;;;-145.66;100.00;59599.19;10420514;28;19925;-63
2022/06/05 06:36:23;;;;;;;;;;;;;;;-145.66;100.00;59599.19;10421138;28;19928;-63
2022/06/05 06:41:45;;;;;;;;;;;;;;;-145.66;100.00;59599.19;10421228;28;19921;-63
2022/06/05 06:46:47;;;;;;;;;;;;;;;-145.66;100.00;59599.19;10419863;28;19928;-63
2022/06/05 06:51:50;;;;;;;;;;;;;;;-145.66;100.00;59599.19;10419535;28;19921;-63
2022/06/05 06:56:52;;;;;;;;;;;;;;;-145.66;100.00;59599.19;10419656;28;19921;-63
2022/06/05 07:01:54;;;;;;;;;;;;;;;-145.66;100.00;59599.19;10419512;28;20280;-63
2022/06/05 07:06:56;;;;;;;;;;;;;;;-145.66;100.00;59599.19;10414885;28;20273;-63
2022/06/05 07:11:59;;;;;;;;;;;;;;;-145.66;100.00;59599.19;10431030;28;20384;-63
2022/06/05 07:17:01;;;;;;;;;;;;;;;-145.66;100.00;59599.19;10432441;28;19921;-63
2022/06/05 07:22:03;;;;;;;;;;;;;;;-145.66;100.00;59599.19;10417176;28;20003;-63
2022/06/05 07:27:06;;;;;;;;;;;;;;;-145.66;100.00;59599.19;10419361;28;19976;-65
2022/06/05 07:32:08;;;;;;;;;;;;;;;-145.66;100.00;59599.19;10419128;28;19925;-65
2022/06/05 07:37:10;;;;;;;;;;;;;;;-145.66;100.00;59599.19;10439772;28;19990;-65
2022/06/05 07:42:13;;;;;;;;;;;;;;;-145.66;100.00;59599.19;10418383;28;19927;-65
2022/06/05 07:47:15;;;;;;;;;;;;;;;-145.66;100.00;59599.19;10426448;28;19921;-65
2022/06/05 07:57:38;;;;;;;;;;;;;;;-145.66;100.00;59599.19;10456981;28;20383;-65
2022/06/05 08:02:40;;;;;;;;;;;;;;;-145.66;100.00;59599.19;10411351;28;19928;-65
2022/06/05 08:07:43;;;;;;;;;;;;;;;-145.66;100.00;59599.19;10429976;28;19921;-65
2022/06/05 08:12:45;;;;;;;;;;;;;;;-145.66;100.00;59599.19;10406782;28;20399;-66
2022/06/05 08:17:47;;;;;;;;;;;;;;;-145.66;100.00;59599.19;10376742;28;19997;-65
2022/06/05 08:22:50;;;;;;;;;;;;;;;-145.66;100.00;59599.19;10433307;28;19921;-66
2022/06/05 08:27:52;;;;;;;;;;;;;;;-145.66;100.00;59599.19;10429537;28;19928;-65
2022/06/05 08:32:55;;;;;;;;;;;;;;;-145.66;100.00;59599.19;10430036;28;19921;-66
2022/06/05 08:43:18;;;;;;;;;;;;;;;-145.66;100.00;59599.19;10455710;28;19921;-66
2022/06/05 08:48:22;;;;;;;;;;;;;;;-145.66;100.00;59599.19;10438309;28;19921;-66
2022/06/05 08:53:25;;;;;;;;;;;;;;;-145.66;100.00;59599.19;10414294;28;19927;-66
2022/06/05 08:58:47;;;;;;;;;;;;;;;-145.66;100.00;59599.19;10423278;28;19921;-65
2022/06/05 09:04:13;;;;;;;;;;;;;;;-145.66;100.00;59599.19;10451788;28;19928;-66
2022/06/05 09:09:17;;;;;;;;;;;;;;;-145.66;100.00;59599.19;10402158;28;19921;-66
2022/06/05 09:14:22;;;;;;;;;;;;;;;-145.66;100.00;59599.19;10437495;28;19921;-66
2022/06/05 09:19:25;;;;;;;;;;;;;;;-145.66;100.00;59599.19;10418748;28;19921;-65
2022/06/05 09:24:46;;;;;;;;;;;;;;;-145.66;100.00;59599.19;10416326;28;20110;-65
2022/06/05 09:29:51;;;;;;;;;;;;;;;-145.66;100.00;59599.19;10435566;28;20495;-65
2022/06/05 09:34:58;;;;;;;;;;;;;;;-145.66;100.00;59599.19;10427674;28;20371;-65
2022/06/05 09:40:03;;;;;;;;;;;;;;;-145.66;100.00;59599.19;10455622;28;20367;-65
2022/06/05 09:45:17;;;;;;;;;;;;;;;-145.66;100.00;59599.19;10453706;28;19976;-65
2022/06/05 09:50:21;;;;;;;;;;;;;;;-145.66;100.00;59599.19;10422708;28;19920;-65
2022/06/05 09:55:29;;;;;;;;;;;;;;;-145.66;100.00;59599.19;10455203;28;20390;-65
2022/06/05 10:00:33;;;;;;;;;;;;;;;-145.66;100.00;59599.19;10421442;28;19921;-65
2022/06/05 10:05:37;;;;;;;;;;;;;;;-145.66;100.00;59599.19;10405062;28;19921;-65
2022/06/05 10:10:39;;;;;;;;;;;;;;;-145.66;100.00;59599.19;10412452;28;19932;-65
2022/06/05 10:15:52;;;;;;;;;;;;;;;-145.66;100.00;59599.19;10428331;28;19920;-65
2022/06/05 10:21:20;;;;;;;;;;;;;;;-145.66;100.00;59599.19;10405407;28;19947;-65
2022/06/05 10:26:22;;;;;;;;;;;;;;;-145.66;100.00;59599.19;10462234;28;19927;-65
2022/06/05 10:31:26;;;;;;;;;;;;;;;-145.66;100.00;59599.19;10446990;28;20364;-65
2022/06/05 10:36:47;;;;;;;;;;;;;;;-145.66;100.00;59599.19;10419074;28;20421;-65
2022/06/05 10:42:01;;;;;;;;;;;;;;;-145.66;100.00;59599.19;10410413;28;19932;-66
2022/06/05 10:47:09;;;;;;;;;;;;;;;-145.66;100.00;59599.19;10434969;28;20367;-67
2022/06/05 10:52:14;;;;;;;;;;;;;;;-145.66;100.00;59599.19;10423926;28;19925;-68
2022/06/05 10:57:25;;;;;;;;;;;;;;;-145.66;100.00;59599.19;10439310;28;19921;-68
2022/06/05 11:02:42;;;;;;;;;;;;;;;-145.66;100.00;59599.19;10459813;28;19927;-67
2022/06/05 11:07:54;;;;;;;;;;;;;;;-145.66;100.00;59599.19;10441756;28;19956;-65
2022/06/05 11:18:49;;;;;;;;;;;;;;;-145.66;100.00;59599.19;10375454;28;19928;-65
2022/06/05 11:23:53;;;;;;;;;;;;;;;-145.66;100.00;59599.19;10399676;28;19944;-65
2022/06/05 11:29:11;;;;;;;;;;;;;;;-145.66;100.00;59599.19;10395302;28;19922;-64
2022/06/05 11:34:25;;;;;;;;;;;;;;;-145.66;100.00;59599.19;10378759;28;19921;-65
2022/06/05 11:39:53;;;;;;;;;;;;;;;-145.66;100.00;59599.19;10378787;28;20261;-64
2022/06/05 11:44:57;;;;;;;;;;;;;;;-145.66;100.00;59599.19;10356986;28;19922;-65
2022/06/05 11:50:21;;;;;;;;;;;;;;;-145.66;100.00;59599.19;10376287;28;19922;-64
2022/06/05 11:55:32;;;;;;;;;;;;;;;-145.66;100.00;59599.19;10376923;28;20443;-64
2022/06/05 12:00:35;;;;;;;;;;;;;;;-145.66;100.00;59599.19;10376238;28;19921;-63
2022/06/05 12:05:45;;;;;;;;;;;;;;;-145.66;100.00;59599.19;10377237;28;19928;-63
2022/06/05 12:10:59;;;;;;;;;;;;;;;-145.66;100.00;59599.19;10359094;28;19944;-63
2022/06/05 12:16:06;;;;;;;;;;;;;;;-145.66;100.00;59599.19;10396477;28;19928;-63
2022/06/05 12:21:11;;;;;;;;;;;;;;;-145.66;100.00;59599.19;10400271;28;19943;-63
2022/06/05 12:26:16;;;;;;;;;;;;;;;-145.66;100.00;59599.19;10399825;28;19928;-64
2022/06/05 12:31:28;;;;;;;;;;;;;;;-145.66;100.00;59599.19;10416766;28;20315;-64
2022/06/05 12:36:36;;;;;;;;;;;;;;;-145.66;100.00;59599.19;10399677;28;19921;-65
2022/06/05 12:41:48;;;;;;;;;;;;;;;-145.66;100.00;59599.19;10399025;28;20307;-65
2022/06/05 12:46:51;;;;;;;;;;;;;;;-145.66;100.00;59599.19;10416724;28;19921;-65
2022/06/05 12:52:05;;;;;;;;;;;;;;;-145.66;100.00;59599.19;10416594;28;19948;-65
2022/06/05 12:57:08;;;;;;;;;;;;;;;-145.66;100.00;59599.19;10398418;28;20390;-64
2022/06/05 13:02:26;;;;;;;;;;;;;;;-145.66;100.00;59599.19;10398233;28;19943;-64
2022/06/05 13:07:38;;;;;;;;;;;;;;;-145.66;100.00;59599.19;10416203;28;19927;-64
2022/06/05 13:12:42;;;;;;;;;;;;;;;-145.66;100.00;59599.19;10415310;28;19920;-63
2022/06/05 13:17:47;;;;;;;;;;;;;;;-145.66;100.00;59599.19;10398453;28;19921;-63
2022/06/05 13:23:00;;;;;;;;;;;;;;;-145.66;100.00;59599.19;10416388;28;19925;-63
2022/06/05 13:28:06;;;;;;;;;;;;;;;-145.66;100.00;59599.19;10414509;28;19921;-63
2022/06/05 13:33:13;;;;;;;;;;;;;;;-145.66;100.00;59599.19;10414971;28;19921;-64
2022/06/05 13:38:34;;;;;;;;;;;;;;;-145.66;100.00;59599.19;10402542;28;19929;-64
2022/06/05 13:43:37;;;;;;;;;;;;;;;-145.66;100.00;59599.19;10423609;28;19921;-63
2022/06/05 13:48:43;;;;;;;;;;;;;;;-145.66;100.00;59599.19;10423358;28;19921;-63
2022/06/05 13:53:45;;;;;;;;;;;;;;;-145.66;100.00;59599.19;10422595;28;19921;-63
2022/06/05 13:59:00;;;;;;;;;;;;;;;-145.66;100.00;59599.19;10405391;28;19928;-64
2022/06/05 14:04:18;;;;;;;;;;;;;;;-145.66;100.00;59599.19;10422183;28;20364;-64
2022/06/05 14:09:33;;;;;;;;;;;;;;;-145.66;100.00;59599.19;10421811;28;19921;-64
2022/06/05 14:14:39;;;;;;;;;;;;;;;-145.66;100.00;59599.19;10421909;28;19921;-63
2022/06/05 14:19:41;;;;;;;;;;;;;;;-145.66;100.00;59599.19;10421633;28;20284;-63
2022/06/05 14:24:43;;;;;;;;;;;;;;;-145.66;100.00;59599.19;10421951;28;19921;-64
2022/06/05 14:29:47;;;;;;;;;;;;;;;-145.66;100.00;59599.19;10421289;28;20257;-64
2022/06/05 14:35:07;;;;;;;;;;;;;;;-145.66;100.00;59599.19;10420643;28;20049;-64
2022/06/05 14:40:11;;;;;;;;;;;;;;;-145.66;100.00;59599.19;10403936;28;19925;-64
2022/06/05 14:45:15;;;;;;;;;;;;;;;-145.66;100.00;59599.19;10403586;28;19921;-65
2022/06/05 14:50:19;;;;;;;;;;;;;;;-145.66;100.00;59599.19;10418199;28;20283;-65
2022/06/05 15:01:24;;;;;;;;;;;;;;;-145.66;100.00;59599.19;10420605;28;19928;-65
2022/06/05 15:06:28;;;;;;;;;;;;;;;-145.66;100.00;59599.19;10420722;28;20353;-63
2022/06/05 15:11:33;;;;;;;;;;;;;;;-145.66;100.00;59599.19;10419583;28;19928;-63
2022/06/05 15:16:37;;;;;;;;;;;;;;;-145.66;100.00;59599.19;10428159;28;19921;-64
2022/06/05 15:21:40;;;;;;;;;;;;;;;-145.66;100.00;59599.19;10429349;28;20268;-63
2022/06/05 15:26:45;;;;;;;;;;;;;;;-145.66;100.00;59599.19;10438981;23;19920;-63
2022/06/05 15:31:50;;;;;;;;;;;;;;;-145.66;100.00;59599.19;10459766;28;19921;-62
2022/06/05 15:36:58;;;;;;;;;;;;;;;-145.66;100.00;59599.19;10460466;28;19921;-63
2022/06/05 15:42:18;;;;;;;;;;;;;;;-145.66;100.00;59599.19;10459534;28;19924;-62
2022/06/05 15:47:31;;;;;;;;;;;;;;;-145.66;100.00;59599.19;10467336;28;19921;-64
2022/06/05 15:52:49;;;;;;;;;;;;;;;-145.66;100.00;59599.19;10492510;28;19921;-63
2022/06/05 15:58:19;;;;;;;;;;;;;;;-145.66;100.00;59599.19;10472709;28;19924;-63
2022/06/05 16:03:23;;;;;;;;;;;;;;;-145.66;100.00;59599.19;10483582;28;20397;-63
2022/06/05 16:08:26;;;;;;;;;;;;;;;-145.66;100.00;59599.19;10499927;28;19920;-64
2022/06/05 16:13:28;;;;;;;;;;;;;;;-145.66;100.00;59599.19;10499937;28;19986;-64
2022/06/05 16:18:36;;;;;;;;;;;;;;;-145.66;100.00;59599.19;10482529;28;19925;-63
2022/06/05 16:23:41;;;;;;;;;;;;;;;-145.66;100.00;59599.19;10499458;28;19924;-63
2022/06/05 16:28:44;;;;;;;;;;;;;;;-145.66;100.00;59599.19;10498770;28;19920;-63
2022/06/05 16:33:46;;;;;;;;;;;;;;;-145.66;100.00;59599.19;10499099;28;19978;-64
2022/06/05 16:38:55;;;;;;;;;;;;;;;-145.66;100.00;59599.19;10499373;28;19928;-64
2022/06/05 16:43:58;;;;;;;;;;;;;;;-145.66;100.00;59599.19;10498712;28;19943;-64
2022/06/05 16:49:02;;;;;;;;;;;;;;;-145.66;100.00;59599.19;10480937;28;19924;-64
2022/06/05 16:54:21;;;;;;;;;;;;;;;-145.66;100.00;59599.19;10498863;28;19927;-64
2022/06/05 16:59:27;;;;;;;;;;;;;;;-145.66;100.00;59599.19;10498954;28;20310;-64
2022/06/05 17:04:31;;;;;;;;;;;;;;;-145.66;100.00;59599.19;10498993;28;19920;-64
2022/06/05 17:09:33;;;;;;;;;;;;;;;-145.66;100.00;59599.19;10498099;28;19927;-64
2022/06/05 17:14:37;;;;;;;;;;;;;;;-145.66;100.00;59599.19;10496906;28;20390;-63
2022/06/05 17:19:43;;;;;;;;;;;;;;;-145.66;100.00;59599.19;10498803;28;19927;-63
2022/06/05 17:24:52;;;;;;;;;;;;;;;-145.66;100.00;59599.19;10480391;28;20366;-63
2022/06/05 17:30:03;;;;;;;;;;;;;;;-145.66;100.00;59599.19;10479668;28;19921;-63
2022/06/05 17:35:30;;;;;;;;;;;;;;;-145.66;100.00;59599.19;10481102;28;19974;-63
2022/06/05 17:40:44;;;;;;;;;;;;;;;-145.66;100.00;59599.19;10486718;28;20290;-63
2022/06/05 17:45:46;;;;;;;;;;;;;;;-145.66;100.00;59599.19;10472550;28;20278;-63
2022/06/05 17:51:07;;;;;;;;;;;;;;;-145.66;100.00;59599.19;10468046;28;19964;-63
2022/06/05 17:56:11;;;;;;;;;;;;;;;-145.66;100.00;59599.19;10490728;28;19935;-63
2022/06/05 18:01:21;;;;;;;;;;;;;;;-145.66;100.00;59599.19;10490395;28;19932;-63
2022/06/05 18:06:27;;;;;;;;;;;;;;;-145.66;100.00;59599.19;10468836;28;20463;-63
2022/06/05 18:11:29;;;;;;;;;;;;;;;-145.66;100.00;59599.19;10463267;28;20376;-63
2022/06/05 18:16:35;;;;;;;;;;;;;;;-145.66;100.00;59599.19;10441887;28;19929;-64
2022/06/05 18:21:39;;;;;;;;;;;;;;;-145.66;100.00;59599.19;10418834;28;19924;-63
2022/06/05 18:26:55;;;;;;;;;;;;;;;-145.66;100.00;59599.19;10455465;28;19932;-64
2022/06/05 18:32:02;;;;;;;;;;;;;;;-145.66;100.00;59599.19;10460235;28;20299;-64
2022/06/05 18:42:32;;;;;;;;;;;;;;;-145.66;100.00;59599.19;10450990;28;19925;-63
2022/06/05 18:47:43;;;;;;;;;;;;;;;-145.66;100.00;59599.19;10458092;28;19924;-64
2022/06/05 18:52:45;;;;;;;;;;;;;;;-145.66;100.00;59599.19;10478549;28;19925;-64
2022/06/05 18:57:49;;;;;;;;;;;;;;;-145.66;100.00;59599.19;10461045;28;19924;-63
2022/06/05 19:02:58;;;;;;;;;;;;;;;-145.66;100.00;59599.19;10496147;28;19928;-63
2022/06/05 19:08:02;;;;;;;;;;;;;;;-145.66;100.00;59599.19;10495795;28;20156;-64
2022/06/05 19:13:07;;;;;;;;;;;;;;;-145.66;100.00;59599.19;10496106;28;19936;-64
2022/06/05 19:18:12;;;;;;;;;;;;;;;-145.66;100.00;59599.19;10468194;28;19924;-63
2022/06/05 19:23:35;;;;;;;;;;;;;;;-145.66;100.00;59599.19;10453206;28;19932;-63
2022/06/05 19:28:43;;;;;;;;;;;;;;;-145.66;100.00;59599.19;10452289;28;19932;-63
2022/06/05 19:33:45;;;;;;;;;;;;;;;-145.66;100.00;59599.19;10454609;28;19928;-64
2022/06/05 19:39:03;;;;;;;;;;;;;;;-145.66;100.00;59599.19;10484571;28;19924;-64
2022/06/05 19:44:05;;;;;;;;;;;;;;;-145.66;100.00;59599.19;10448684;28;20007;-64
2022/06/05 19:49:14;;;;;;;;;;;;;;;-145.66;100.00;59599.19;10440000;28;19936;-64
2022/06/05 19:54:24;;;;;;;;;;;;;;;-145.66;100.00;59599.19;10446083;28;20338;-66
2022/06/05 19:59:33;;;;;;;;;;;;;;;-145.66;100.00;59599.19;10492017;28;19931;-64
2022/06/05 20:04:37;;;;;;;;;;;;;;;-145.66;100.00;59599.19;10475475;28;19920;-64
2022/06/05 20:09:40;;;;;;;;;;;;;;;-145.66;100.00;59599.19;10480849;28;20282;-63
2022/06/05 20:14:42;;;;;;;;;;;;;;;-145.66;100.00;59599.19;10497277;28;19924;-63
2022/06/05 20:20:03;;;;;;;;;;;;;;;-145.66;100.00;59599.19;10498096;28;19920;-63
2022/06/05 20:25:20;;;;;;;;;;;;;;;-145.66;100.00;59599.19;10497800;28;19920;-65
2022/06/05 20:30:28;;;;;;;;;;;;;;;-145.66;100.00;59599.19;10460090;28;1088557;-63
2022/06/05 20:35:30;;;;;;;;;;;;;;;-145.66;100.00;59599.19;10481000;28;19920;-63
2022/06/05 20:40:35;;;;;;;;;;;;;;;-145.66;100.00;59599.19;10480937;28;20291;-63
2022/06/05 20:45:39;;;;;;;;;;;;;;;-145.66;100.00;59599.19;10479755;28;20390;-62
2022/06/05 20:50:52;;;;;;;;;;;;;;;-145.66;100.00;59599.19;10480511;28;20372;-63
2022/06/05 20:55:57;;;;;;;;;;;;;;;-145.66;100.00;59599.19;10476189;28;20331;-63
2022/06/05 21:01:03;;;;;;;;;;;;;;;-145.66;100.00;59599.19;10498597;28;19921;-64
2022/06/05 21:16:56;;;;;;;;;;;;;;;-145.66;100.00;59599.19;10483626;28;19920;-64
2022/06/05 21:21:59;;;;;;;;;;;;;;;-145.66;100.00;59599.19;10498507;28;19928;-63
2022/06/05 21:27:06;;;;;;;;;;;;;;;-145.66;100.00;59599.19;10480585;28;19920;-67
2022/06/05 21:32:27;;;;;;;;;;;;;;;-145.66;100.00;59599.19;10497666;28;19920;-64
2022/06/05 21:37:29;;;;;;;;;;;;;;;-145.66;100.00;59599.19;10498470;28;19926;-63
2022/06/05 21:42:32;;;;;;;;;;;;;;;-145.66;100.00;59599.19;10480064;28;19927;-64
2022/06/05 21:47:34;;;;;;;;;;;;;;;-145.66;100.00;59599.19;10480004;28;19920;-64
2022/06/05 21:52:41;;;;;;;;;;;;;;;-145.66;100.00;59599.19;10480126;28;19927;-64
2022/06/05 21:57:44;;;;;;;;;;;;;;;-145.66;100.00;59599.19;10482153;28;19927;-63
2022/06/05 22:02:46;;;;;;;;;;;;;;;-145.66;100.00;59599.19;10487043;28;20376;-64
2022/06/05 22:07:50;;;;;;;;;;;;;;;-145.66;100.00;59599.19;10487802;28;19927;-64
2022/06/05 22:12:52;;;;;;;;;;;;;;;-145.66;100.00;59599.19;10505109;28;19931;-64
2022/06/05 22:17:55;;;;;;;;;;;;;;;-145.66;100.00;59599.19;10504476;28;20363;-65
2022/06/05 22:22:58;;;;;;;;;;;;;;;-145.66;100.00;59599.19;10504473;28;19920;-64
2022/06/05 22:28:00;;;;;;;;;;;;;;;-145.66;100.00;59599.19;10486587;28;19928;-65
2022/06/05 22:33:02;;;;;;;;;;;;;;;-145.66;100.00;59599.19;10504358;28;19932;-65
2022/06/05 22:38:05;;;;;;;;;;;;;;;-145.66;100.00;59599.19;10486458;28;19920;-65
2022/06/05 22:43:07;;;;;;;;;;;;;;;-145.66;100.00;59599.19;10503276;28;20375;-65
2022/06/05 22:48:10;;;;;;;;;;;;;;;-145.66;100.00;59599.19;10504001;28;19921;-65
2022/06/05 22:53:12;;;;;;;;;;;;;;;-145.66;100.00;59599.19;10503035;28;20378;-64
2022/06/05 22:58:14;;;;;;;;;;;;;;;-145.66;100.00;59599.19;10503727;28;19927;-65
2022/06/05 23:03:18;;;;;;;;;;;;;;;-145.66;100.00;59599.19;10503177;28;19927;-64
2022/06/05 23:08:21;;;;;;;;;;;;;;;-145.66;100.00;59599.19;10501218;28;20019;-64
2022/06/05 23:13:23;;;;;;;;;;;;;;;-145.66;100.00;59599.19;10502260;28;20389;-64
2022/06/05 23:18:26;;;;;;;;;;;;;;;-145.66;100.00;59599.19;10502839;28;19920;-64
2022/06/05 23:23:28;;;;;;;;;;;;;;;-145.66;100.00;59599.19;10502315;28;19928;-64
2022/06/05 23:28:30;;;;;;;;;;;;;;;-145.66;100.00;59599.19;10501697;28;19928;-65
2022/06/05 23:33:32;;;;;;;;;;;;;;;-145.66;100.00;59599.19;10502041;28;19930;-65
2022/06/05 23:38:35;;;;;;;;;;;;;;;-145.66;100.00;59599.19;10501785;28;19920;-65
2022/06/05 23:43:37;;;;;;;;;;;;;;;-145.66;100.00;59599.19;10483825;28;19920;-65
2022/06/05 23:48:40;;;;;;;;;;;;;;;-145.66;100.00;59599.19;10501515;28;19920;-65
2022/06/05 23:53:43;;;;;;;;;;;;;;;-145.66;100.00;59599.19;10500712;28;19931;-64
2022/06/05 23:58:46;;;;;;;;;;;;;;;-145.66;100.00;59599.19;10500933;28;19920;-65
